Time;durP1;ratioP1;P1;durP2;ratioP2;P2;SDS_P1;SDS_P2;PMS_P1;PMS_P2;Temp;Humidity;BMP_temperature;BMP_pressure;BME280_temperature;BME280_humidity;BME280_pressure;Samples;Min_cycle;Max_cycle;Signal;HPM_P1;HPM_P2
2022/03/02 00:01:09;;;;;;;10.02;8.48;;;16.60;53.40;;;;;;4913896;28;92502;-69
2022/03/02 00:03:36;;;;;;;9.68;8.65;;;16.50;53.40;;;;;;4914313;28;92899;-70
2022/03/02 00:06:01;;;;;;;9.20;8.30;;;16.60;53.40;;;;;;4913263;28;93762;-71
2022/03/02 00:08:28;;;;;;;9.27;8.30;;;16.60;53.40;;;;;;4913999;28;92456;-70
2022/03/02 00:10:54;;;;;;;9.50;8.50;;;16.50;53.30;;;;;;4913277;28;93014;-69
2022/03/02 00:13:19;;;;;;;9.38;8.25;;;16.50;53.40;;;;;;4916072;28;93470;-70
2022/03/02 00:15:45;;;;;;;10.20;8.68;;;16.50;53.30;;;;;;4915921;28;95672;-70
2022/03/02 00:18:11;;;;;;;8.93;8.02;;;16.50;53.30;;;;;;4912630;28;95733;-70
2022/03/02 00:20:37;;;;;;;9.75;8.65;;;16.50;53.40;;;;;;4913520;28;93139;-70
2022/03/02 00:23:03;;;;;;;9.50;8.40;;;16.60;53.30;;;;;;4912717;28;92720;-70
2022/03/02 00:25:29;;;;;;;12.50;8.70;;;16.50;53.20;;;;;;4912006;28;94146;-70
2022/03/02 00:27:54;;;;;;;9.50;8.50;;;16.50;53.30;;;;;;4911747;28;93061;-69
2022/03/02 00:30:22;;;;;;;10.07;8.23;;;16.50;53.20;;;;;;4909793;28;97362;-70
2022/03/02 00:32:48;;;;;;;9.40;8.40;;;16.50;54.30;;;;;;4912313;28;92186;-69
2022/03/02 00:35:14;;;;;;;10.05;8.65;;;16.50;53.20;;;;;;4911905;28;94081;-70
2022/03/02 00:37:39;;;;;;;10.63;8.85;;;16.50;53.20;;;;;;4912547;28;93022;-71
2022/03/02 00:40:05;;;;;;;9.60;8.57;;;16.50;53.30;;;;;;4910474;28;95254;-70
2022/03/02 00:42:31;;;;;;;8.75;7.88;;;16.50;53.20;;;;;;4912838;28;93186;-70
2022/03/02 00:44:57;;;;;;;10.73;9.20;;;16.50;53.20;;;;;;4911548;28;93189;-70
2022/03/02 00:47:24;;;;;;;10.00;8.52;;;16.50;53.20;;;;;;4912058;28;95580;-70
2022/03/02 00:49:51;;;;;;;10.05;8.48;;;16.50;53.20;;;;;;4912168;28;93157;-70
2022/03/02 00:52:17;;;;;;;9.80;8.45;;;16.50;53.20;;;;;;4911784;28;93090;-69
2022/03/02 00:54:42;;;;;;;9.68;8.68;;;16.50;53.10;;;;;;4912869;28;94925;-70
2022/03/02 00:57:08;;;;;;;10.15;8.73;;;16.50;53.20;;;;;;4911993;28;92634;-69
2022/03/02 00:59:33;;;;;;;10.88;8.90;;;16.50;53.10;;;;;;4912326;28;92440;-70
2022/03/02 01:01:59;;;;;;;9.40;8.15;;;16.50;53.10;;;;;;4911875;28;92494;-70
2022/03/02 01:04:25;;;;;;;9.52;8.52;;;16.50;53.10;;;;;;4910934;28;96761;-69
2022/03/02 01:06:51;;;;;;;9.23;8.23;;;16.50;53.10;;;;;;4911931;28;95195;-69
2022/03/02 01:09:17;;;;;;;8.95;8.05;;;16.50;53.00;;;;;;4912317;28;92954;-69
2022/03/02 01:11:42;;;;;;;10.18;9.07;;;16.50;53.00;;;;;;4911964;28;92655;-69
2022/03/02 01:14:08;;;;;;;10.43;8.77;;;16.50;53.00;;;;;;4911120;28;93531;-68
2022/03/02 01:16:34;;;;;;;9.68;8.68;;;16.50;53.00;;;;;;4912212;28;93335;-68
2022/03/02 01:18:59;;;;;;;11.57;9.73;;;16.50;52.90;;;;;;4911702;28;92664;-69
2022/03/02 01:21:25;;;;;;;9.88;8.85;;;16.50;52.90;;;;;;4911626;28;91825;-69
2022/03/02 01:23:53;;;;;;;10.50;9.02;;;16.50;52.90;;;;;;4911484;28;93133;-68
2022/03/02 01:26:21;;;;;;;9.45;8.48;;;16.40;52.90;;;;;;4911229;28;94344;-69
2022/03/02 01:28:47;;;;;;;10.68;9.27;;;16.50;53.00;;;;;;4911230;28;95276;-69
2022/03/02 01:31:13;;;;;;;9.75;8.73;;;16.50;52.90;;;;;;4912361;28;92783;-69
2022/03/02 01:33:40;;;;;;;9.80;8.80;;;16.40;52.90;;;;;;4916609;28;93352;-69
2022/03/02 01:36:06;;;;;;;9.90;8.90;;;16.50;53.00;;;;;;4916883;28;92953;-69
2022/03/02 01:38:31;;;;;;;9.48;8.30;;;16.40;52.90;;;;;;4917762;28;93040;-69
2022/03/02 01:40:57;;;;;;;10.15;8.80;;;16.40;52.80;;;;;;4917701;28;92429;-68
2022/03/02 01:43:27;;;;;;;9.70;8.70;;;16.40;53.80;;;;;;4918041;28;93177;-68
2022/03/02 01:45:53;;;;;;;9.60;8.60;;;16.40;52.90;;;;;;4916011;28;93478;-68
2022/03/02 01:48:18;;;;;;;10.27;9.18;;;16.40;52.90;;;;;;4917738;28;92540;-68
2022/03/02 01:50:44;;;;;;;9.68;8.68;;;16.40;52.90;;;;;;4916591;28;93037;-70
2022/03/02 01:53:10;;;;;;;11.00;9.02;;;16.40;52.90;;;;;;4914806;28;95436;-69
2022/03/02 01:55:35;;;;;;;9.52;8.38;;;16.40;52.90;;;;;;4916857;28;95206;-70
2022/03/02 01:58:02;;;;;;;10.00;8.90;;;16.40;52.90;;;;;;4918792;28;92863;-70
2022/03/02 02:00:31;;;;;;;9.93;8.80;;;16.40;52.80;;;;;;4915539;28;92480;-70
2022/03/02 02:02:57;;;;;;;9.93;8.65;;;16.40;52.90;;;;;;4915720;28;93016;-70
2022/03/02 02:05:23;;;;;;;9.82;8.43;;;16.40;52.90;;;;;;4915027;28;93394;-70
2022/03/02 02:07:50;;;;;;;9.98;8.82;;;16.40;52.80;;;;;;4913857;28;92518;-70
2022/03/02 02:10:16;;;;;;;10.05;8.63;;;16.40;52.80;;;;;;4915129;28;93228;-70
2022/03/02 02:12:42;;;;;;;10.07;9.00;;;16.40;52.80;;;;;;4914480;28;95071;-70
2022/03/02 02:15:10;;;;;;;10.70;9.60;;;16.40;52.90;;;;;;4914410;28;92674;-71
2022/03/02 02:17:36;;;;;;;10.43;9.32;;;16.40;52.80;;;;;;4913956;28;95049;-70
2022/03/02 02:20:06;;;;;;;10.65;8.95;;;16.30;52.80;;;;;;4914886;28;93007;-70
2022/03/02 02:22:36;;;;;;;10.48;9.10;;;16.30;52.80;;;;;;4914324;28;94379;-68
2022/03/02 02:25:03;;;;;;;10.63;9.52;;;16.40;52.90;;;;;;4914647;28;93123;-70
2022/03/02 02:27:29;;;;;;;10.38;9.10;;;16.30;52.80;;;;;;4914508;28;92490;-70
2022/03/02 02:29:55;;;;;;;9.82;8.82;;;16.30;52.80;;;;;;4914863;28;92634;-70
2022/03/02 02:32:22;;;;;;;10.02;9.00;;;16.30;52.80;;;;;;4914802;28;93376;-70
2022/03/02 02:34:48;;;;;;;10.07;8.80;;;16.30;52.80;;;;;;4914801;28;95225;-70
2022/03/02 02:37:13;;;;;;;10.27;9.18;;;16.30;52.80;;;;;;4915392;28;92469;-70
2022/03/02 02:39:39;;;;;;;10.00;9.00;;;16.30;52.80;;;;;;4914904;28;92798;-70
2022/03/02 02:42:06;;;;;;;10.73;9.25;;;16.30;52.80;;;;;;4912857;28;95506;-70
2022/03/02 02:44:34;;;;;;;10.10;9.10;;;16.30;52.80;;;;;;4912674;28;99544;-70
2022/03/02 02:47:00;;;;;;;9.88;8.88;;;16.30;52.80;;;;;;4913330;28;93051;-70
2022/03/02 02:49:26;;;;;;;10.90;9.43;;;16.30;52.80;;;;;;4914133;28;92620;-70
2022/03/02 02:51:53;;;;;;;10.70;9.52;;;16.30;52.80;;;;;;4913496;28;93152;-70
2022/03/02 02:54:20;;;;;;;9.43;8.43;;;16.30;52.80;;;;;;4913542;28;93795;-70
2022/03/02 02:56:46;;;;;;;10.68;9.57;;;16.30;52.80;;;;;;4913771;28;92869;-70
2022/03/02 02:59:11;;;;;;;10.20;9.10;;;16.30;52.80;;;;;;4914748;28;92184;-70
2022/03/02 03:01:37;;;;;;;10.45;9.23;;;16.30;52.90;;;;;;4913892;28;93183;-71
2022/03/02 03:04:03;;;;;;;11.13;9.18;;;16.30;52.80;;;;;;4913610;28;93217;-70
2022/03/02 03:06:29;;;;;;;10.20;9.07;;;16.30;52.80;;;;;;4912404;28;94937;-70
2022/03/02 03:08:55;;;;;;;11.23;10.13;;;16.30;52.80;;;;;;4914049;28;92487;-70
2022/03/02 03:11:21;;;;;;;10.60;9.32;;;16.30;52.80;;;;;;4913630;28;94396;-70
2022/03/02 03:13:47;;;;;;;10.68;9.57;;;16.20;52.70;;;;;;4914244;28;94005;-71
2022/03/02 03:16:13;;;;;;;11.02;9.20;;;16.20;52.70;;;;;;4914220;28;92777;-70
2022/03/02 03:18:39;;;;;;;10.73;9.25;;;16.20;52.70;;;;;;4913943;28;93304;-71
2022/03/02 03:21:04;;;;;;;11.85;10.05;;;16.20;52.80;;;;;;4913518;28;93270;-71
2022/03/02 03:23:30;;;;;;;10.27;9.00;;;16.20;52.80;;;;;;4914372;28;96888;-70
2022/03/02 03:25:55;;;;;;;10.45;9.35;;;16.20;52.70;;;;;;4915004;28;92529;-71
2022/03/02 03:28:21;;;;;;;10.80;9.70;;;16.20;53.80;;;;;;4915199;28;92928;-71
2022/03/02 03:30:47;;;;;;;10.55;9.45;;;16.20;52.70;;;;;;4914524;28;96773;-71
2022/03/02 03:33:12;;;;;;;10.48;9.40;;;16.20;52.70;;;;;;4915739;28;103101;-70
2022/03/02 03:35:38;;;;;;;10.32;9.25;;;16.20;52.70;;;;;;4917329;28;92518;-70
2022/03/02 03:38:04;;;;;;;10.27;9.15;;;16.20;52.80;;;;;;4915567;28;92959;-70
2022/03/02 03:40:30;;;;;;;10.60;9.50;;;16.20;52.70;;;;;;4914947;28;93068;-71
2022/03/02 03:42:57;;;;;;;11.98;10.77;;;16.20;52.70;;;;;;4913319;28;92992;-70
2022/03/02 03:45:22;;;;;;;10.40;9.18;;;16.20;52.60;;;;;;4913109;28;92713;-70
2022/03/02 03:47:48;;;;;;;11.10;9.93;;;16.20;52.70;;;;;;4914461;28;92152;-70
2022/03/02 03:50:14;;;;;;;11.07;9.65;;;16.20;52.70;;;;;;4912938;28;93643;-70
2022/03/02 03:52:41;;;;;;;11.05;9.95;;;16.20;52.70;;;;;;4911253;28;95565;-70
2022/03/02 03:55:10;;;;;;;10.73;9.63;;;16.20;52.60;;;;;;4911264;28;95062;-70
2022/03/02 03:57:36;;;;;;;11.63;10.15;;;16.20;52.60;;;;;;4912849;28;92808;-69
2022/03/02 04:00:05;;;;;;;12.50;10.07;;;16.20;52.60;;;;;;4912367;28;93845;-69
2022/03/02 05:45:30;;;;;;;11.15;10.02;;;15.90;52.40;;;;;;4969774;23;95397;-65
2022/03/02 05:47:56;;;;;;;11.80;10.40;;;15.90;52.50;;;;;;4970389;28;92880;-65
2022/03/02 05:50:22;;;;;;;12.98;11.13;;;15.90;52.40;;;;;;4969251;28;93117;-65
2022/03/02 05:52:47;;;;;;;12.20;10.90;;;15.90;52.40;;;;;;4969509;28;102564;-65
2022/03/02 05:55:13;;;;;;;11.35;10.00;;;15.90;52.30;;;;;;4968671;28;92548;-65
2022/03/02 05:57:39;;;;;;;11.32;10.13;;;15.90;52.30;;;;;;4970710;28;93803;-65
2022/03/02 06:00:06;;;;;;;11.85;10.65;;;15.90;52.30;;;;;;4968672;28;94192;-65
2022/03/02 06:02:32;;;;;;;12.15;10.52;;;15.80;52.30;;;;;;4970037;28;92820;-67
2022/03/02 06:04:58;;;;;;;11.43;9.95;;;15.90;52.30;;;;;;4968631;28;93235;-67
2022/03/02 06:07:24;;;;;;;11.23;10.13;;;15.90;52.30;;;;;;4970450;28;92813;-67
2022/03/02 06:09:50;;;;;;;10.63;9.52;;;16.00;52.30;;;;;;4967292;28;96482;-67
2022/03/02 06:12:17;;;;;;;10.52;9.43;;;16.10;52.20;;;;;;4952215;28;96192;-66
2022/03/02 06:14:42;;;;;;;10.27;9.13;;;16.30;51.90;;;;;;4968796;28;92855;-66
2022/03/02 06:17:09;;;;;;;9.43;8.43;;;16.50;51.60;;;;;;4969900;28;92593;-66
2022/03/02 06:19:35;;;;;;;11.02;8.93;;;16.70;51.30;;;;;;4972050;28;92853;-66
2022/03/02 06:22:03;;;;;;;9.48;8.35;;;17.00;50.80;;;;;;4973501;28;93434;-67
2022/03/02 06:24:30;;;;;;;8.13;7.35;;;17.20;51.40;;;;;;4972121;28;92650;-66
2022/03/02 06:26:56;;;;;;;9.25;8.25;;;17.40;50.00;;;;;;4974337;28;92148;-66
2022/03/02 06:29:22;;;;;;;9.27;7.97;;;17.50;49.70;;;;;;4954571;28;93703;-66
2022/03/02 06:31:48;;;;;;;8.98;7.60;;;17.70;49.40;;;;;;4973406;28;92522;-66
2022/03/02 06:34:14;;;;;;;8.32;7.45;;;17.80;49.10;;;;;;4970868;28;95760;-67
2022/03/02 06:36:40;;;;;;;8.75;7.78;;;18.00;48.90;;;;;;4974315;28;92675;-66
2022/03/02 06:39:05;;;;;;;7.80;7.00;;;18.00;48.70;;;;;;4954364;28;94061;-66
2022/03/02 06:41:49;;;;;;;7.60;6.80;;;18.10;48.50;;;;;;4972723;28;92620;-66
2022/03/02 06:44:25;;;;;;;7.70;6.85;;;18.20;48.40;;;;;;4990258;28;92689;-66
2022/03/02 06:47:03;;;;;;;7.07;6.38;;;18.30;48.30;;;;;;4992673;28;93085;-65
2022/03/02 06:49:50;;;;;;;6.72;6.03;;;18.30;48.20;;;;;;4991525;28;92585;-66
2022/03/02 06:52:20;;;;;;;8.90;6.93;;;18.40;48.10;;;;;;4992251;28;93362;-67
2022/03/02 06:54:57;;;;;;;10.77;7.85;;;18.40;48.00;;;;;;4993309;28;92938;-66
2022/03/02 06:57:28;;;;;;;11.75;7.95;;;18.40;47.70;;;;;;4992330;28;92723;-66
2022/03/02 06:59:57;;;;;;;11.55;8.52;;;18.30;47.50;;;;;;4991761;28;95804;-66
2022/03/02 07:02:51;;;;;;;10.05;8.50;;;18.30;47.50;;;;;;4991319;28;96322;-66
2022/03/02 07:05:18;;;;;;;10.55;8.80;;;18.20;47.30;;;;;;4992378;28;93143;-66
2022/03/02 07:07:45;;;;;;;11.00;9.27;;;18.20;47.40;;;;;;4992535;28;92923;-66
2022/03/02 07:10:11;;;;;;;12.88;9.23;;;18.10;47.40;;;;;;4992469;28;94025;-67
2022/03/02 07:12:38;;;;;;;11.95;10.00;;;18.10;47.40;;;;;;4992223;28;93427;-66
2022/03/02 07:15:06;;;;;;;14.80;10.25;;;18.00;47.30;;;;;;4991693;28;93007;-66
2022/03/02 07:17:32;;;;;;;12.48;10.05;;;18.00;47.30;;;;;;4992021;28;92232;-66
2022/03/02 07:20:00;;;;;;;12.85;10.00;;;18.00;47.20;;;;;;4990388;28;95624;-66
2022/03/02 07:22:31;;;;;;;14.55;9.80;;;18.00;47.10;;;;;;4992055;28;92794;-66
2022/03/02 07:25:10;;;;;;;12.02;9.90;;;18.00;46.80;;;;;;4990440;28;94934;-67
2022/03/02 07:27:38;;;;;;;12.63;10.50;;;18.00;46.70;;;;;;4993203;28;93043;-67
2022/03/02 07:30:11;;;;;;;13.88;10.75;;;18.10;46.70;;;;;;4993987;28;94240;-66
2022/03/02 07:32:43;;;;;;;13.98;10.07;;;18.10;46.40;;;;;;4997370;28;93002;-67
2022/03/02 07:35:09;;;;;;;12.77;10.40;;;18.20;46.30;;;;;;4991601;28;92420;-67
2022/03/02 07:37:34;;;;;;;14.30;11.07;;;18.20;46.20;;;;;;4995437;28;92667;-66
2022/03/02 07:40:01;;;;;;;13.15;10.57;;;18.20;46.00;;;;;;4991774;28;93062;-67
2022/03/02 07:42:27;;;;;;;15.02;11.15;;;18.20;46.10;;;;;;4992324;28;94448;-67
2022/03/02 07:44:54;;;;;;;14.30;11.18;;;18.20;45.90;;;;;;4990549;28;92630;-66
2022/03/02 07:47:20;;;;;;;12.95;10.95;;;18.20;45.90;;;;;;4991522;28;93149;-67
2022/03/02 07:49:46;;;;;;;13.57;11.48;;;18.20;45.90;;;;;;4990298;28;95974;-67
2022/03/02 07:52:14;;;;;;;12.85;10.90;;;18.10;45.80;;;;;;4990414;28;95992;-68
2022/03/02 07:54:41;;;;;;;13.65;11.35;;;18.10;45.80;;;;;;4991893;28;92758;-67
2022/03/02 07:57:09;;;;;;;15.27;11.10;;;18.10;45.80;;;;;;4991069;28;92887;-67
2022/03/02 07:59:40;;;;;;;13.57;11.10;;;18.10;45.80;;;;;;4990883;28;93707;-66
2022/03/02 08:02:08;;;;;;;14.43;11.32;;;18.10;45.70;;;;;;4990758;28;92494;-66
2022/03/02 08:04:36;;;;;;;13.55;11.57;;;18.10;45.70;;;;;;4990311;28;92530;-66
2022/03/02 08:07:02;;;;;;;12.90;11.40;;;18.10;45.60;;;;;;4992362;28;91752;-67
2022/03/02 08:09:28;;;;;;;11.93;10.70;;;18.10;46.50;;;;;;4990765;28;95587;-67
2022/03/02 08:11:55;;;;;;;13.18;10.82;;;18.20;45.40;;;;;;4991133;28;94641;-67
2022/03/02 08:14:24;;;;;;;13.27;10.65;;;18.20;45.20;;;;;;4989930;28;95207;-66
2022/03/02 08:16:51;;;;;;;12.50;10.73;;;18.30;45.20;;;;;;4991161;28;92460;-66
2022/03/02 08:19:18;;;;;;;12.63;10.70;;;18.30;45.10;;;;;;4990850;28;93242;-66
2022/03/02 08:21:47;;;;;;;12.65;10.70;;;18.30;44.90;;;;;;4991990;28;93343;-66
2022/03/02 08:24:16;;;;;;;12.95;10.60;;;18.40;44.80;;;;;;4990990;28;92793;-67
2022/03/02 08:26:47;;;;;;;14.02;11.18;;;18.40;44.60;;;;;;4991718;28;92583;-66
2022/03/02 08:29:13;;;;;;;13.73;10.88;;;18.50;44.60;;;;;;4989998;28;94207;-66
2022/03/02 08:31:41;;;;;;;15.82;11.63;;;18.50;44.50;;;;;;4991156;28;93345;-66
2022/03/02 08:34:07;;;;;;;13.15;11.05;;;18.50;44.40;;;;;;4990212;28;92631;-66
2022/03/02 08:36:34;;;;;;;14.18;10.80;;;18.50;44.50;;;;;;4991408;28;92565;-67
2022/03/02 08:39:05;;;;;;;12.30;11.00;;;18.40;44.40;;;;;;4988988;28;96466;-67
2022/03/02 08:41:31;;;;;;;13.40;11.45;;;18.40;44.50;;;;;;4989902;28;95038;-66
2022/03/02 08:43:57;;;;;;;13.90;11.35;;;18.30;44.60;;;;;;4989831;28;92638;-66
2022/03/02 08:46:24;;;;;;;12.98;11.50;;;18.30;44.70;;;;;;4989333;28;92936;-67
2022/03/02 08:48:50;;;;;;;12.25;10.85;;;18.30;44.80;;;;;;4990880;28;93150;-67
2022/03/02 08:51:17;;;;;;;13.13;10.95;;;18.20;44.80;;;;;;4988905;28;92886;-66
2022/03/02 08:53:44;;;;;;;13.88;11.20;;;18.30;44.90;;;;;;4990586;28;92963;-66
2022/03/02 08:56:10;;;;;;;12.55;10.57;;;18.30;44.70;;;;;;4990618;28;91768;-67
2022/03/02 08:58:37;;;;;;;13.05;10.52;;;18.30;44.70;;;;;;4989793;28;93135;-67
2022/03/02 09:01:03;;;;;;;13.88;11.25;;;18.30;44.60;;;;;;4989278;28;93882;-66
2022/03/02 09:03:33;;;;;;;12.13;10.75;;;18.30;44.60;;;;;;4988383;28;95586;-67
2022/03/02 09:06:01;;;;;;;12.80;10.43;;;18.30;44.60;;;;;;4990786;28;94190;-66
2022/03/02 09:08:27;;;;;;;12.07;10.52;;;18.30;44.70;;;;;;4990257;28;93324;-66
2022/03/02 09:10:53;;;;;;;12.60;10.80;;;18.30;44.70;;;;;;4991102;28;92429;-66
2022/03/02 09:13:19;;;;;;;12.75;10.98;;;18.30;45.80;;;;;;4990154;28;92525;-66
2022/03/02 09:15:57;;;;;;;12.55;10.82;;;18.30;44.80;;;;;;4992302;28;92625;-66
2022/03/02 09:18:23;;;;;;;12.32;10.50;;;18.30;44.60;;;;;;4995161;28;93239;-67
2022/03/02 09:20:58;;;;;;;12.63;10.63;;;18.30;45.60;;;;;;4993251;28;92352;-65
2022/03/02 09:23:28;;;;;;;14.90;10.55;;;18.30;44.50;;;;;;4990865;28;92888;-66
2022/03/02 09:25:58;;;;;;;12.57;10.27;;;18.40;44.60;;;;;;4989376;28;92741;-67
2022/03/02 09:28:28;;;;;;;12.55;10.18;;;18.30;44.60;;;;;;4988672;28;95604;-67
2022/03/02 09:30:54;;;;;;;12.50;10.60;;;18.30;44.60;;;;;;4989144;28;97196;-67
2022/03/02 09:33:22;;;;;;;12.20;10.20;;;18.30;44.70;;;;;;4990537;28;92953;-67
2022/03/02 09:35:48;;;;;;;12.68;10.68;;;18.30;44.80;;;;;;4990552;28;92816;-66
2022/03/02 09:38:17;;;;;;;12.20;10.27;;;18.30;44.70;;;;;;4989651;28;94023;-66
2022/03/02 09:40:44;;;;;;;15.05;10.07;;;18.30;44.70;;;;;;4989326;28;93306;-67
2022/03/02 09:43:16;;;;;;;11.35;9.95;;;18.30;44.70;;;;;;4989753;28;92907;-67
2022/03/02 09:45:42;;;;;;;11.90;9.88;;;18.30;44.60;;;;;;4990808;28;92811;-67
2022/03/02 09:48:18;;;;;;;10.82;9.65;;;18.30;44.60;;;;;;4990041;28;93127;-67
2022/03/02 09:50:44;;;;;;;11.55;9.90;;;18.30;44.60;;;;;;4989313;28;93909;-67
2022/03/02 09:53:14;;;;;;;12.80;10.05;;;18.30;44.60;;;;;;4991475;28;95555;-67
2022/03/02 09:55:41;;;;;;;10.77;8.82;;;18.30;44.70;;;;;;4993661;28;92525;-67
2022/03/02 09:58:07;;;;;;;13.43;10.00;;;18.30;44.70;;;;;;4993460;28;94624;-67
2022/03/02 10:00:33;;;;;;;11.77;9.60;;;18.20;45.80;;;;;;4992890;28;94913;-66
2022/03/02 10:03:00;;;;;;;12.93;10.32;;;18.20;44.80;;;;;;4992409;28;92517;-67
2022/03/02 10:05:31;;;;;;;11.25;10.05;;;18.20;44.80;;;;;;4993294;28;92964;-66
2022/03/02 10:08:07;;;;;;;12.32;9.38;;;18.20;45.00;;;;;;4992261;28;94606;-67
2022/03/02 10:10:41;;;;;;;10.00;8.88;;;18.20;44.90;;;;;;4993297;28;94560;-67
2022/03/02 10:13:12;;;;;;;11.40;9.50;;;18.20;44.80;;;;;;4992135;28;93167;-67
2022/03/02 10:15:40;;;;;;;11.75;9.35;;;18.20;44.80;;;;;;4993679;28;93340;-67
2022/03/02 10:18:07;;;;;;;9.80;8.80;;;18.20;44.80;;;;;;4991773;28;95307;-67
2022/03/02 10:20:42;;;;;;;12.75;10.50;;;18.20;44.80;;;;;;4993094;28;96408;-67
2022/03/02 10:23:29;;;;;;;10.98;9.48;;;18.20;44.80;;;;;;4992196;28;93045;-67
2022/03/02 10:26:05;;;;;;;11.45;9.32;;;18.20;44.80;;;;;;4993828;28;92957;-67
2022/03/02 10:29:00;;;;;;;10.85;9.27;;;18.20;44.90;;;;;;4992584;28;93890;-66
2022/03/02 10:32:05;;;;;;;10.63;9.32;;;18.20;44.90;;;;;;4993069;28;93929;-66
2022/03/02 10:34:43;;;;;;;11.13;9.27;;;18.20;44.80;;;;;;4891541;28;92865;-67
2022/03/02 10:37:20;;;;;;;11.63;9.50;;;18.20;44.80;;;;;;4983125;28;91833;-67
2022/03/02 10:39:57;;;;;;;10.52;8.82;;;18.20;44.70;;;;;;4992856;28;94198;-67
2022/03/02 10:42:32;;;;;;;11.57;9.60;;;18.20;44.70;;;;;;4991860;28;92936;-67
2022/03/02 10:45:06;;;;;;;10.43;8.77;;;18.20;44.80;;;;;;4990645;28;95253;-67
2022/03/02 10:47:35;;;;;;;13.18;9.50;;;18.20;44.80;;;;;;4991856;28;92500;-67
2022/03/02 10:50:04;;;;;;;10.18;9.05;;;18.20;44.80;;;;;;4991788;28;94279;-67
2022/03/02 10:52:35;;;;;;;10.13;9.00;;;18.20;44.80;;;;;;4991195;28;93908;-67
2022/03/02 10:55:09;;;;;;;10.40;8.95;;;18.20;44.70;;;;;;4992907;28;92905;-67
2022/03/02 10:57:37;;;;;;;9.85;8.55;;;18.20;44.60;;;;;;4992317;28;92908;-67
2022/03/02 11:00:13;;;;;;;9.65;8.40;;;18.20;44.70;;;;;;4992644;28;93091;-68
2022/03/02 11:02:48;;;;;;;10.68;9.07;;;18.20;44.60;;;;;;4996330;28;91806;-66
2022/03/02 11:05:16;;;;;;;11.15;8.88;;;18.20;44.60;;;;;;4997326;28;92540;-67
2022/03/02 11:07:43;;;;;;;10.27;8.68;;;18.20;44.70;;;;;;4993490;28;92955;-66
2022/03/02 11:10:12;;;;;;;11.45;8.75;;;18.20;44.60;;;;;;4991124;28;95369;-67
2022/03/02 11:12:41;;;;;;;12.65;8.82;;;18.20;44.60;;;;;;4991177;28;96528;-66
2022/03/02 11:15:07;;;;;;;9.93;8.50;;;18.30;44.60;;;;;;4992533;28;93117;-67
2022/03/02 11:17:33;;;;;;;9.75;8.75;;;18.30;44.70;;;;;;4991702;28;92781;-66
2022/03/02 11:20:09;;;;;;;10.60;9.18;;;18.30;44.70;;;;;;4992798;28;92896;-67
2022/03/02 11:22:36;;;;;;;10.82;8.32;;;18.30;44.70;;;;;;4992451;28;92789;-66
2022/03/02 11:25:03;;;;;;;10.13;8.27;;;18.30;44.70;;;;;;4992309;28;93830;-66
2022/03/02 11:27:42;;;;;;;9.23;8.13;;;18.20;44.70;;;;;;4993689;28;91716;-67
2022/03/02 11:30:11;;;;;;;11.23;8.63;;;18.30;44.70;;;;;;4991977;28;93218;-67
2022/03/02 11:32:40;;;;;;;10.98;8.48;;;18.20;44.70;;;;;;4991717;28;93382;-67
2022/03/02 11:35:09;;;;;;;9.52;8.18;;;18.20;44.70;;;;;;4990286;28;95231;-67
2022/03/02 11:37:35;;;;;;;9.13;8.02;;;18.20;44.80;;;;;;4993006;28;92461;-68
2022/03/02 11:40:09;;;;;;;11.30;8.82;;;18.20;44.90;;;;;;4991329;28;93069;-67
2022/03/02 11:42:40;;;;;;;11.10;9.00;;;18.20;45.00;;;;;;4989946;28;94023;-67
2022/03/02 11:45:08;;;;;;;9.93;8.85;;;18.10;45.00;;;;;;4990837;28;92788;-67
2022/03/02 11:47:37;;;;;;;9.70;8.30;;;18.10;45.20;;;;;;4991986;28;92771;-67
2022/03/02 11:50:05;;;;;;;10.88;9.23;;;18.10;45.20;;;;;;4991591;28;93998;-67
2022/03/02 11:52:35;;;;;;;11.45;8.75;;;18.10;45.30;;;;;;4992339;28;92855;-67
2022/03/02 11:55:06;;;;;;;13.45;8.77;;;18.10;45.20;;;;;;4991253;28;92576;-67
2022/03/02 11:57:39;;;;;;;9.23;8.18;;;18.10;45.20;;;;;;4992287;28;92962;-66
2022/03/02 12:00:11;;;;;;;;;;;18.00;45.20;;;;;;4989577;28;97026;-67
2022/03/02 12:02:42;;;;;;;10.98;8.93;;;18.00;45.40;;;;;;4992973;28;94761;-67
2022/03/02 12:05:09;;;;;;;9.98;8.82;;;18.00;46.40;;;;;;4990826;28;93022;-67
2022/03/02 12:07:44;;;;;;;9.90;8.45;;;18.00;46.40;;;;;;4991473;28;92768;-67
2022/03/02 12:10:23;;;;;;;11.02;7.90;;;18.00;45.40;;;;;;4990694;28;93690;-67
2022/03/02 12:12:51;;;;;;;10.70;8.73;;;18.00;45.50;;;;;;4990612;28;93868;-67
2022/03/02 12:15:19;;;;;;;9.80;8.40;;;17.90;45.50;;;;;;4990562;28;92786;-67
2022/03/02 12:17:46;;;;;;;9.82;8.32;;;17.90;45.60;;;;;;4992323;28;91840;-67
2022/03/02 12:20:21;;;;;;;10.00;8.27;;;17.90;45.70;;;;;;4990439;28;94870;-67
2022/03/02 12:22:52;;;;;;;10.52;7.70;;;17.90;45.70;;;;;;4991317;28;93892;-67
2022/03/02 12:25:20;;;;;;;8.93;7.45;;;17.90;45.70;;;;;;4989676;28;95490;-67
2022/03/02 12:28:01;;;;;;;10.52;8.25;;;17.90;45.90;;;;;;4991268;28;92550;-67
2022/03/02 12:30:35;;;;;;;8.25;7.43;;;17.90;45.90;;;;;;4991017;28;92521;-67
2022/03/02 12:33:02;;;;;;;9.25;8.13;;;17.80;46.00;;;;;;4991518;28;92630;-68
2022/03/02 12:35:27;;;;;;;10.63;7.85;;;17.80;46.00;;;;;;4990831;28;92817;-67
2022/03/02 12:37:55;;;;;;;9.02;7.72;;;17.80;46.00;;;;;;4991149;28;92904;-67
2022/03/02 12:40:26;;;;;;;10.43;7.97;;;17.80;46.00;;;;;;4990559;28;93623;-67
2022/03/02 12:42:52;;;;;;;9.77;7.75;;;17.80;46.10;;;;;;4991482;28;94039;-67
2022/03/02 12:45:41;;;;;;;10.00;8.40;;;17.80;46.20;;;;;;4974875;28;92602;-68
2022/03/02 12:48:07;;;;;;;9.77;8.13;;;17.80;46.20;;;;;;4996796;28;92410;-67
2022/03/02 12:50:34;;;;;;;10.35;7.63;;;17.80;46.30;;;;;;4993122;28;95663;-68
2022/03/02 12:53:01;;;;;;;8.57;7.68;;;17.80;46.30;;;;;;4991641;28;95233;-68
2022/03/02 12:55:27;;;;;;;8.60;7.70;;;17.80;46.30;;;;;;4990836;28;92574;-68
2022/03/02 12:57:54;;;;;;;11.73;7.85;;;17.80;46.40;;;;;;4990448;28;92971;-67
2022/03/02 13:00:22;;;;;;;9.32;7.40;;;17.80;46.40;;;;;;4990023;28;93282;-67
2022/03/02 13:02:51;;;;;;;9.15;7.32;;;17.80;46.60;;;;;;4990519;28;92982;-68
2022/03/02 13:05:35;;;;;;;8.98;7.38;;;17.80;46.50;;;;;;4991582;28;92977;-69
2022/03/02 13:08:24;;;;;;;8.95;7.60;;;17.80;46.50;;;;;;4991637;28;92239;-67
2022/03/02 13:10:50;;;;;;;8.45;7.10;;;17.70;46.50;;;;;;4989959;28;94093;-67
2022/03/02 13:13:36;;;;;;;8.30;7.07;;;17.70;46.50;;;;;;4990705;28;92857;-68
2022/03/02 13:16:22;;;;;;;8.88;7.47;;;17.80;46.60;;;;;;4989312;28;95443;-67
2022/03/02 13:18:49;;;;;;;8.90;7.75;;;17.70;46.50;;;;;;4991033;28;93141;-67
2022/03/02 13:21:16;;;;;;;9.10;7.53;;;17.70;46.60;;;;;;4990913;28;93032;-67
2022/03/02 13:24:00;;;;;;;9.45;7.30;;;17.70;46.60;;;;;;4991546;28;92817;-67
2022/03/02 13:26:26;;;;;;;9.15;7.65;;;17.80;46.60;;;;;;4990947;28;92493;-67
2022/03/02 13:29:02;;;;;;;7.90;6.85;;;17.70;46.60;;;;;;4993824;28;92517;-67
2022/03/02 13:31:28;;;;;;;9.98;7.60;;;17.80;47.60;;;;;;4993734;28;93193;-67
2022/03/02 13:34:05;;;;;;;8.88;7.18;;;17.80;46.60;;;;;;4993352;28;92876;-66
2022/03/02 13:36:39;;;;;;;7.60;6.80;;;17.80;46.50;;;;;;4993631;28;92744;-68
2022/03/02 13:39:10;;;;;;;8.40;7.07;;;17.80;46.60;;;;;;4994942;28;92477;-68
2022/03/02 13:41:46;;;;;;;8.65;6.90;;;17.80;46.60;;;;;;4992570;28;95381;-67
2022/03/02 13:44:34;;;;;;;9.32;7.15;;;17.80;46.60;;;;;;4992302;28;98487;-68
2022/03/02 13:47:13;;;;;;;8.48;7.00;;;17.80;46.60;;;;;;4993417;28;92678;-68
2022/03/02 13:49:49;;;;;;;7.85;6.72;;;17.80;46.60;;;;;;4993505;28;93172;-68
2022/03/02 13:52:20;;;;;;;7.80;7.00;;;17.80;46.50;;;;;;4993724;28;93575;-68
2022/03/02 13:54:46;;;;;;;7.78;6.97;;;17.80;46.50;;;;;;4993186;28;92823;-67
2022/03/02 13:57:29;;;;;;;8.73;7.05;;;17.80;46.50;;;;;;4993675;28;92785;-68
2022/03/02 14:00:14;;;;;;;7.90;7.07;;;17.80;46.40;;;;;;4993918;28;92298;-67
2022/03/02 14:02:40;;;;;;;8.88;7.10;;;17.80;46.40;;;;;;4993487;28;95060;-69
2022/03/02 14:05:06;;;;;;;8.35;7.03;;;17.80;46.40;;;;;;4992921;28;93478;-68
2022/03/02 14:07:35;;;;;;;7.85;7.00;;;17.80;46.40;;;;;;4992436;28;95167;-68
2022/03/02 14:10:03;;;;;;;9.23;7.30;;;17.80;46.40;;;;;;4992891;28;93089;-68
2022/03/02 14:12:29;;;;;;;8.32;6.43;;;17.80;46.40;;;;;;4992275;28;93377;-67
2022/03/02 14:14:54;;;;;;;8.75;7.28;;;17.80;46.40;;;;;;4973641;28;104971;-68
2022/03/02 14:17:20;;;;;;;9.02;6.75;;;17.90;46.50;;;;;;4992514;28;92539;-67
2022/03/02 14:19:48;;;;;;;8.60;7.13;;;17.90;46.50;;;;;;4993627;28;92790;-67
2022/03/02 14:22:21;;;;;;;8.57;7.03;;;17.90;46.50;;;;;;4991900;28;94274;-67
2022/03/02 14:24:50;;;;;;;8.93;7.15;;;17.90;46.50;;;;;;4993348;28;93268;-67
2022/03/02 14:27:25;;;;;;;8.25;6.95;;;17.90;46.50;;;;;;4993006;28;93030;-67
2022/03/02 14:30:04;;;;;;;7.60;6.75;;;17.90;47.40;;;;;;4993881;28;92611;-67